Time;durP1;ratioP1;P1;durP2;ratioP2;P2;SDS_P1;SDS_P2;PMS_P1;PMS_P2;Temp;Humidity;BMP_temperature;BMP_pressure;BME280_temperature;BME280_humidity;BME280_pressure;Samples;Min_cycle;Max_cycle;Signal;HPM_P1;HPM_P2
2021/07/28 00:00:07;;;;;;;8.77;5.13;;;;;;;29.11;45.06;100963.98;127921;1090;64138;-85
2021/07/28 00:02:40;;;;;;;7.20;4.50;;;;;;;29.10;45.20;100964.98;127911;1090;64351;-85
2021/07/28 00:05:09;;;;;;;5.77;4.37;;;;;;;29.10;45.03;100964.98;127932;1090;64282;-86
2021/07/28 00:07:37;;;;;;;6.50;4.53;;;;;;;29.10;45.14;100970.42;128259;1085;64213;-86
2021/07/28 00:10:04;;;;;;;7.50;5.10;;;;;;;29.11;45.16;100963.98;128364;1086;64100;-86
2021/07/28 00:12:32;;;;;;;6.07;4.63;;;;;;;29.10;45.23;100960.39;127986;1087;64176;-86
2021/07/28 00:15:02;;;;;;;6.65;4.83;;;;;;;29.10;45.20;100959.55;127969;1086;64144;-86
2021/07/28 00:17:30;;;;;;;8.30;5.07;;;;;;;29.09;45.17;100953.28;128184;1084;64285;-86
2021/07/28 00:25:26;;;;;;;7.23;4.73;;;;;;;29.09;45.32;100953.28;128377;1084;64208;-86
2021/07/28 00:28:01;;;;;;;7.17;4.70;;;;;;;29.08;45.05;100946.13;128433;1082;64182;-86
2021/07/28 00:30:36;;;;;;;6.97;4.77;;;;;;;29.10;45.30;100948.68;128413;1084;63936;-85
2021/07/28 00:33:06;;;;;;;8.30;4.97;;;;;;;29.09;45.09;100944.25;128379;1082;64272;-86
2021/07/28 00:35:42;;;;;;;6.40;5.10;;;;;;;29.09;45.05;100949.69;128390;1082;64176;-86
2021/07/28 00:38:18;;;;;;;6.97;5.00;;;;;;;29.09;45.12;100946.97;128441;1082;64282;-85
2021/07/28 00:40:50;;;;;;;9.00;4.93;;;;;;;29.09;45.38;100957.84;128371;1084;64105;-86
2021/07/28 00:43:23;;;;;;;6.53;4.87;;;;;;;29.08;45.37;100954.28;128372;1082;64134;-86
2021/07/28 00:45:50;;;;;;;6.03;4.90;;;;;;;29.09;45.38;100953.28;128430;1083;64285;-86
2021/07/28 00:48:19;;;;;;;7.63;5.10;;;;;;;29.09;45.37;100960.56;128429;1084;64147;-86
2021/07/28 00:50:48;;;;;;;6.60;4.90;;;;;;;29.09;45.28;100955.13;128402;1084;64204;-85
2021/07/28 00:53:24;;;;;;;7.73;4.80;;;;;;;29.08;45.34;100957.00;128444;1082;64127;-86
2021/07/28 00:55:53;;;;;;;6.47;4.80;;;;;;;29.08;45.18;100947.97;128375;1084;64278;-86
2021/07/28 00:58:20;;;;;;;6.80;4.90;;;;;;;29.08;45.05;100953.41;128412;1083;64275;-86
2021/07/28 01:00:47;;;;;;;6.80;5.27;;;;;;;29.08;45.14;100951.56;128386;1083;64615;-86
2021/07/28 01:03:14;;;;;;;6.50;4.90;;;;;;;29.08;45.50;100948.84;128405;1083;64127;-86
2021/07/28 01:05:40;;;;;;;6.40;4.93;;;;;;;29.08;45.15;100951.56;128389;1083;64261;-86
2021/07/28 01:08:17;;;;;;;6.40;4.90;;;;;;;29.09;45.42;100955.13;128374;1084;64169;-86
2021/07/28 01:10:47;;;;;;;8.00;5.10;;;;;;;29.08;45.34;100953.41;128442;1083;64146;-85
2021/07/28 01:13:25;;;;;;;7.17;5.20;;;;;;;29.08;45.50;100958.84;128343;1084;64294;-86
2021/07/28 01:16:13;;;;;;;6.85;4.98;;;;;;;29.07;45.56;100954.45;128351;1084;64131;-86
2021/07/28 01:18:42;;;;;;;7.40;5.30;;;;;;;29.07;45.61;100954.45;128446;1084;64093;-86
2021/07/28 01:21:10;;;;;;;7.13;5.07;;;;;;;29.08;45.53;100951.56;128380;1084;64382;-87
2021/07/28 01:23:40;;;;;;;8.73;5.40;;;;;;;29.08;45.34;100950.69;128426;1083;64096;-86
2021/07/28 01:26:07;;;;;;;9.23;5.30;;;;;;;29.07;45.54;100955.28;128368;1082;64124;-86
2021/07/28 01:28:34;;;;;;;8.03;5.10;;;;;;;29.07;45.33;100944.41;128449;1084;64111;-86
2021/07/28 01:31:30;;;;;;;6.73;4.73;;;;;;;29.07;45.50;100943.58;128413;1084;64104;-86
2021/07/28 01:34:09;;;;;;;7.27;4.90;;;;;;;29.08;45.56;100942.53;128366;1087;64301;-86
2021/07/28 01:36:35;;;;;;;7.45;4.90;;;;;;;29.06;45.86;100939.14;128372;1086;64234;-86
2021/07/28 01:39:09;;;;;;;7.63;5.60;;;;;;;29.07;45.60;100935.42;128022;1087;63974;-86
2021/07/28 01:41:35;;;;;;;6.67;5.30;;;;;;;29.07;45.63;100938.98;128045;1087;64141;-86
2021/07/28 01:44:10;;;;;;;6.97;5.10;;;;;;;29.07;45.90;100930.83;127981;1086;65595;-86
2021/07/28 01:46:37;;;;;;;6.50;4.70;;;;;;;29.06;45.43;100923.67;127978;1087;64555;-86
2021/07/28 01:49:22;;;;;;;;;;;;;;;;;;;;;
2021/07/28 01:51:52;;;;;;;6.37;4.80;;;;;;;29.07;45.90;100929.98;127948;1087;64272;-86
2021/07/28 01:54:30;;;;;;;8.00;5.30;;;;;;;29.07;45.86;100932.70;128007;1087;64099;-86
2021/07/28 01:56:59;;;;;;;6.80;5.20;;;;;;;29.07;45.88;100929.98;128013;1085;64352;-86
2021/07/28 01:59:29;;;;;;;7.00;5.30;;;;;;;29.06;45.67;100928.27;127996;1087;64151;-86
2021/07/28 02:01:57;;;;;;;6.33;5.37;;;;;;;29.07;45.74;100929.98;127981;1087;63913;-86
2021/07/28 02:04:25;;;;;;;7.13;4.73;;;;;;;29.05;45.72;100932.83;127955;1087;64278;-84
2021/07/28 02:07:01;;;;;;;6.47;4.80;;;;;;;29.07;45.65;100927.27;128343;1086;64284;-86
2021/07/28 02:09:30;;;;;;;6.53;4.87;;;;;;;29.06;45.74;100914.69;127994;1085;64162;-86
2021/07/28 02:11:59;;;;;;;7.13;5.60;;;;;;;29.06;45.84;100931.83;128343;1084;64326;-86
2021/07/28 02:14:25;;;;;;;6.63;5.20;;;;;;;29.06;45.67;100930.98;128389;1084;64179;-86
2021/07/28 02:17:04;;;;;;;6.60;5.30;;;;;;;29.06;45.80;100933.70;128386;1084;64166;-86
2021/07/28 02:19:33;;;;;;;7.70;5.33;;;;;;;29.05;46.05;100935.55;128466;1084;64089;-86
2021/07/28 02:21:59;;;;;;;6.75;5.20;;;;;;;29.06;45.91;100939.14;128484;1084;64167;-86
2021/07/28 02:24:26;;;;;;;7.00;5.07;;;;;;;29.06;45.95;100928.27;128479;1082;64247;-86
2021/07/28 02:26:52;;;;;;;5.90;4.87;;;;;;;29.07;45.76;100938.14;128479;1084;64201;-85
2021/07/28 02:29:20;;;;;;;6.23;5.00;;;;;;;29.06;46.06;100939.98;128446;1084;64107;-86
2021/07/28 02:32:06;;;;;;;;;;;;;;;;;;;;;
2021/07/28 02:34:33;;;;;;;6.73;5.13;;;;;;;29.06;45.94;100933.70;128377;1084;64485;-86
2021/07/28 02:37:00;;;;;;;8.47;5.57;;;;;;;29.06;46.20;100934.55;128328;1084;64128;-85
2021/07/28 02:39:26;;;;;;;6.03;5.23;;;;;;;29.06;45.63;100926.39;128415;1082;64230;-85
2021/07/28 02:42:09;;;;;;;7.73;5.47;;;;;;;29.06;45.76;100933.70;128411;1083;63968;-86
2021/07/28 02:45:08;;;;;;;9.17;5.33;;;;;;;29.05;46.06;100931.99;128382;1082;64135;-86
2021/07/28 02:47:46;;;;;;;6.93;5.20;;;;;;;29.06;45.85;100933.70;128389;1087;64137;-86
2021/07/28 02:50:13;;;;;;;7.03;5.13;;;;;;;29.06;46.04;100934.55;128413;1086;62969;-86
2021/07/28 02:52:40;;;;;;;7.43;5.37;;;;;;;29.06;46.20;100939.14;127973;1086;64102;-86
2021/07/28 02:55:11;;;;;;;7.30;5.13;;;;;;;29.06;46.03;100939.14;127982;1086;64137;-86
2021/07/28 02:57:43;;;;;;;6.90;5.17;;;;;;;29.05;46.16;100935.55;128376;1087;64247;-86
2021/07/28 03:00:13;;;;;;;7.77;5.20;;;;;;;29.05;45.96;100938.27;128057;1087;64106;-85
2021/07/28 03:02:48;;;;;;;8.10;5.10;;;;;;;29.06;46.15;100936.42;128022;1087;64134;-86
2021/07/28 03:05:34;;;;;;;;;;;;;;;;;;;;;
2021/07/28 03:08:00;;;;;;;6.77;5.07;;;;;;;29.05;46.09;100937.43;128064;1087;64403;-86
2021/07/28 03:10:37;;;;;;;6.63;5.10;;;;;;;29.05;46.07;100937.43;128042;1087;64288;-86
2021/07/28 03:13:03;;;;;;;8.33;5.47;;;;;;;29.06;46.15;100930.98;128359;1086;64208;-86
2021/07/28 03:15:38;;;;;;;8.67;5.40;;;;;;;29.05;45.92;100926.56;128028;1087;64111;-88
2021/07/28 03:18:05;;;;;;;8.07;5.30;;;;;;;29.05;46.05;100929.28;127990;1087;64371;-86
2021/07/28 03:20:31;;;;;;;8.80;5.50;;;;;;;29.06;46.13;100930.98;128031;1087;64852;-87
2021/07/28 03:22:57;;;;;;;7.97;5.40;;;;;;;29.05;46.37;100926.56;128026;1086;64138;-86
2021/07/28 03:25:27;;;;;;;7.97;5.23;;;;;;;29.06;46.14;100914.69;128188;1084;64182;-86
2021/07/28 03:28:07;;;;;;;7.07;5.10;;;;;;;29.04;46.31;100923.00;128416;1084;64204;-85
2021/07/28 03:30:37;;;;;;;6.67;5.30;;;;;;;29.05;46.06;100932.83;128451;1084;64134;-85
2021/07/28 03:33:22;;;;;;;;;;;;;;;;;;;;;
2021/07/28 03:36:17;;;;;;;6.67;5.17;;;;;;;29.05;46.24;100927.40;128389;1084;64106;-86
2021/07/28 03:38:44;;;;;;;8.63;5.60;;;;;;;29.05;46.31;100926.56;128405;1083;64275;-86
2021/07/28 03:41:12;;;;;;;7.27;5.17;;;;;;;29.05;46.46;100930.12;128406;1084;64154;-86
2021/07/28 03:43:49;;;;;;;;;;;;;;;;;;;;;
2021/07/28 03:46:24;;;;;;;6.83;5.20;;;;;;;29.06;46.10;100929.11;128410;1082;64124;-86
2021/07/28 03:48:54;;;;;;;8.43;6.10;;;;;;;29.06;46.23;100934.55;128387;1084;64085;-86
2021/07/28 03:51:21;;;;;;;7.50;5.40;;;;;;;29.06;46.25;100939.14;128417;1083;64333;-85
2021/07/28 03:53:48;;;;;;;7.50;5.60;;;;;;;29.06;46.39;100939.98;128388;1082;63926;-87
2021/07/28 03:56:23;;;;;;;7.50;5.30;;;;;;;29.06;46.26;100939.98;128382;1084;64076;-86
2021/07/28 03:58:52;;;;;;;7.43;5.47;;;;;;;29.06;46.30;100941.86;128427;1084;64288;-86
2021/07/28 04:01:18;;;;;;;9.67;5.60;;;;;;;29.07;46.24;100940.86;128427;1084;64205;-85
2021/07/28 04:03:45;;;;;;;7.30;5.57;;;;;;;29.06;46.41;100948.14;128409;1084;64281;-86
2021/07/28 04:06:11;;;;;;;6.80;5.43;;;;;;;29.07;46.49;100951.73;128421;1084;64128;-87
2021/07/28 04:08:41;;;;;;;6.60;5.20;;;;;;;29.06;46.25;100953.57;128439;1084;64135;-86
2021/07/28 04:11:10;;;;;;;7.77;5.47;;;;;;;29.06;46.60;100950.85;128372;1084;63959;-85
2021/07/28 04:13:36;;;;;;;7.43;5.30;;;;;;;29.07;46.46;100949.84;128372;1084;63945;-86
2021/07/28 04:16:03;;;;;;;7.53;5.50;;;;;;;29.07;46.23;100952.56;128410;1084;62187;-86
2021/07/28 04:18:35;;;;;;;7.07;5.27;;;;;;;29.07;46.34;100951.73;128415;1082;64099;-86
2021/07/28 04:21:05;;;;;;;7.40;5.70;;;;;;;29.07;46.53;100949.84;128399;1084;64092;-86
2021/07/28 04:23:42;;;;;;;8.53;5.77;;;;;;;29.08;46.15;100947.97;128394;1084;64212;-86
2021/07/28 04:26:09;;;;;;;10.70;6.00;;;;;;;29.09;46.20;100949.69;128394;1084;64103;-86
2021/07/28 04:28:44;;;;;;;8.07;5.83;;;;;;;29.08;46.65;100943.41;128403;1084;64275;-86
2021/07/28 04:31:11;;;;;;;8.13;6.13;;;;;;;29.09;46.48;100946.97;128435;1084;64131;-85
2021/07/28 04:33:38;;;;;;;7.17;5.33;;;;;;;29.09;46.27;100936.97;128360;1084;64607;-86
2021/07/28 04:36:04;;;;;;;7.90;5.60;;;;;;;29.09;46.37;100938.81;128356;1082;64169;-86
2021/07/28 04:38:30;;;;;;;8.17;5.77;;;;;;;29.09;46.43;100939.69;128423;1083;64173;-85
2021/07/28 04:40:57;;;;;;;8.07;5.70;;;;;;;29.09;46.39;100949.69;128450;1084;64244;-86
2021/07/28 04:43:28;;;;;;;8.50;5.83;;;;;;;29.09;46.54;100942.41;128350;1084;64213;-86
2021/07/28 04:46:09;;;;;;;7.10;5.53;;;;;;;29.10;46.57;100943.25;128392;1084;64303;-85
2021/07/28 04:48:38;;;;;;;7.20;5.37;;;;;;;29.11;46.68;100944.95;128441;1083;64301;-86
2021/07/28 04:51:18;;;;;;;;;;;;;;;;;;;;;
2021/07/28 04:53:45;;;;;;;7.33;5.60;;;;;;;29.12;46.56;100938.48;128414;1083;64134;-85
2021/07/28 04:56:20;;;;;;;7.20;5.30;;;;;;;29.11;46.39;100936.80;128406;1081;64016;-85
2021/07/28 04:58:47;;;;;;;9.70;5.43;;;;;;;29.12;46.47;100938.48;128398;1084;64173;-86
2021/07/28 05:01:24;;;;;;;7.53;5.60;;;;;;;29.11;46.48;100931.37;128401;1084;64244;-86
2021/07/28 05:03:51;;;;;;;8.07;6.00;;;;;;;29.14;46.66;100931.04;128243;1084;64042;-85
2021/07/28 05:06:17;;;;;;;8.17;5.83;;;;;;;29.14;46.65;100931.04;128340;1084;64127;-85
2021/07/28 05:08:44;;;;;;;8.67;5.70;;;;;;;29.14;46.75;100927.48;128367;1084;64096;-86
2021/07/28 05:11:10;;;;;;;7.33;6.20;;;;;;;29.14;46.70;100924.77;128421;1082;64134;-88
2021/07/28 05:13:37;;;;;;;8.13;6.13;;;;;;;29.15;46.80;100930.03;128397;1083;64128;-86
2021/07/28 05:16:04;;;;;;;8.13;5.97;;;;;;;29.15;46.48;100930.03;128338;1083;64136;-84
2021/07/28 05:18:30;;;;;;;7.83;5.97;;;;;;;29.15;46.68;100924.59;128409;1084;64147;-87
2021/07/28 05:20:59;;;;;;;7.67;5.73;;;;;;;29.16;46.24;100925.44;128381;1084;64378;-86
2021/07/28 05:23:33;;;;;;;8.90;5.80;;;;;;;29.17;46.55;100930.70;128370;1084;64101;-86
2021/07/28 05:26:08;;;;;;;10.63;6.23;;;;;;;29.17;46.40;100925.27;128374;1084;64134;-87
2021/07/28 05:28:38;;;;;;;7.83;6.10;;;;;;;29.18;46.55;100926.14;128376;1082;64292;-85
2021/07/28 05:31:06;;;;;;;8.27;5.57;;;;;;;29.18;46.63;100921.55;128377;1082;64251;-86
2021/07/28 05:33:32;;;;;;;8.65;6.50;;;;;;;29.19;46.35;100934.13;128246;1084;64102;-85
2021/07/28 05:35:58;;;;;;;9.90;6.27;;;;;;;29.20;46.35;100935.84;128250;1082;64163;-86
2021/07/28 05:38:25;;;;;;;8.43;6.03;;;;;;;29.21;46.27;100931.25;128342;1083;64208;-86
2021/07/28 05:40:55;;;;;;;16.10;10.13;;;;;;;29.22;46.32;100933.80;128286;1084;64136;-86
2021/07/28 05:43:26;;;;;;;15.43;9.70;;;;;;;29.23;46.48;100931.95;128311;1082;64349;-86
2021/07/28 05:45:55;;;;;;;15.90;10.07;;;;;;;29.24;46.34;100928.20;128393;1084;64317;-85
2021/07/28 05:48:21;;;;;;;19.33;10.23;;;;;;;29.24;46.19;100926.35;128336;1082;64179;-85
2021/07/28 05:50:51;;;;;;;17.23;9.77;;;;;;;29.25;46.16;100929.91;128389;1084;64109;-85
2021/07/28 05:53:17;;;;;;;9.70;7.50;;;;;;;29.26;46.31;100929.78;128366;1084;64102;-86
2021/07/28 05:55:44;;;;;;;16.83;10.30;;;;;;;29.27;46.12;100930.65;128362;1084;64109;-85
2021/07/28 05:58:10;;;;;;;9.50;6.60;;;;;;;29.28;46.27;100931.48;128399;1082;64166;-86
2021/07/28 06:00:37;;;;;;;9.03;6.67;;;;;;;29.28;46.06;100940.48;128418;1084;64124;-87
2021/07/28 06:03:06;;;;;;;14.03;9.37;;;;;;;29.29;46.16;100938.64;128372;1084;64181;-86
2021/07/28 06:05:32;;;;;;;19.57;10.23;;;;;;;29.30;46.24;100943.91;128406;1084;64141;-85
2021/07/28 06:08:02;;;;;;;15.57;9.80;;;;;;;29.30;46.20;100938.47;128415;1083;64125;-86
2021/07/28 06:10:31;;;;;;;8.93;6.60;;;;;;;29.31;46.16;100932.03;128407;1084;64175;-85
2021/07/28 06:13:00;;;;;;;8.30;6.50;;;;;;;29.31;46.15;100934.75;128391;1084;64211;-86
2021/07/28 06:15:27;;;;;;;8.60;6.77;;;;;;;29.33;46.01;100934.58;128433;1084;64202;-86
2021/07/28 06:17:53;;;;;;;9.57;6.60;;;;;;;29.33;46.12;100937.30;128502;1084;64239;-86
2021/07/28 06:20:19;;;;;;;9.83;6.60;;;;;;;29.34;46.09;100928.14;128496;1084;64145;-85
2021/07/28 06:22:46;;;;;;;9.03;6.50;;;;;;;29.35;45.91;100935.25;128950;1084;61775;-86
2021/07/28 06:25:12;;;;;;;8.73;6.30;;;;;;;29.35;46.17;100941.56;128401;1084;64254;-86
2021/07/28 06:27:39;;;;;;;8.47;6.40;;;;;;;29.37;45.79;100938.69;128358;1084;64429;-86
2021/07/28 06:30:10;;;;;;;8.45;6.00;;;;;;;29.38;46.21;100933.08;128376;1082;64088;-86
2021/07/28 06:32:36;;;;;;;8.57;6.83;;;;;;;29.37;45.87;100939.52;128357;1083;64152;-85
2021/07/28 06:35:05;;;;;;;11.83;7.00;;;;;;;29.38;46.00;100930.36;128375;1084;64180;-85
2021/07/28 06:37:33;;;;;;;9.53;6.90;;;;;;;29.39;45.80;100937.51;128362;1084;64123;-86
2021/07/28 06:40:04;;;;;;;8.73;6.67;;;;;;;29.39;45.97;100942.95;128406;1083;64252;-86
2021/07/28 06:42:33;;;;;;;8.23;6.23;;;;;;;29.39;46.15;100937.51;128375;1084;64179;-86
2021/07/28 06:45:03;;;;;;;8.53;6.53;;;;;;;29.40;46.27;100944.66;128389;1084;64153;-85
2021/07/28 06:47:39;;;;;;;10.47;7.40;;;;;;;29.40;46.00;100936.50;128392;1084;64583;-86
2021/07/28 06:50:06;;;;;;;11.27;6.70;;;;;;;29.41;45.96;100946.34;128419;1084;64265;-86
2021/07/28 06:52:32;;;;;;;9.40;7.13;;;;;;;29.42;45.79;100945.33;128408;1084;64131;-86
2021/07/28 06:54:58;;;;;;;9.23;6.50;;;;;;;29.41;45.75;100938.19;128379;1084;62033;-86
2021/07/28 06:57:29;;;;;;;11.17;7.00;;;;;;;29.41;46.07;100934.63;128343;1083;64245;-85
2021/07/28 06:59:57;;;;;;;11.10;7.50;;;;;;;29.42;45.89;100937.17;128371;1084;64262;-86
2021/07/28 07:02:23;;;;;;;9.00;6.70;;;;;;;29.42;46.16;100933.61;128404;1084;64146;-86
2021/07/28 07:04:50;;;;;;;10.70;6.83;;;;;;;29.42;45.90;100934.45;128334;1084;64133;-85
2021/07/28 07:07:16;;;;;;;10.37;7.07;;;;;;;29.43;46.11;100935.33;128316;1084;64338;-85
2021/07/28 07:09:43;;;;;;;10.95;7.23;;;;;;;29.43;45.84;100929.89;128376;1084;64627;-85
2021/07/28 07:12:11;;;;;;;9.28;7.25;;;;;;;29.43;45.85;100936.17;128410;1083;64147;-85
2021/07/28 07:14:37;;;;;;;8.98;7.08;;;;;;;29.44;45.92;100934.29;128372;1084;64141;-85
2021/07/28 07:17:13;;;;;;;11.10;7.27;;;;;;;29.44;45.81;100937.00;128328;1084;64119;-86
2021/07/28 07:19:40;;;;;;;10.30;6.83;;;;;;;29.43;45.75;100938.89;128295;1084;64138;-85
2021/07/28 07:22:08;;;;;;;9.67;6.90;;;;;;;29.45;45.64;100937.88;128376;1084;64725;-87
2021/07/28 07:24:35;;;;;;;9.85;6.95;;;;;;;29.43;45.60;100933.45;128313;1084;64157;-85
2021/07/28 07:27:04;;;;;;;11.53;7.00;;;;;;;29.44;45.89;100937.00;128292;1086;64131;-86
2021/07/28 07:29:30;;;;;;;9.23;6.67;;;;;;;29.45;45.79;100937.88;128360;1084;64309;-85
2021/07/28 07:32:02;;;;;;;10.77;7.03;;;;;;;29.44;45.66;100926.13;128356;1084;64098;-85
2021/07/28 07:34:29;;;;;;;11.13;7.13;;;;;;;29.45;46.04;100937.88;128366;1082;64170;-86
2021/07/28 07:36:56;;;;;;;10.30;7.30;;;;;;;29.46;45.88;100936.84;128300;1084;64301;-86
2021/07/28 07:39:22;;;;;;;9.03;6.90;;;;;;;29.46;45.88;100934.12;128193;1084;64146;-84
2021/07/28 07:41:51;;;;;;;10.03;7.10;;;;;;;29.46;45.58;100936.84;128267;1084;64093;-85
2021/07/28 07:44:17;;;;;;;8.23;7.00;;;;;;;29.47;46.04;100930.39;128336;1084;64186;-85
2021/07/28 07:47:01;;;;;;;;;;;;;;;;;;;;;
2021/07/28 07:49:27;;;;;;;9.50;6.87;;;;;;;29.47;45.82;100933.98;128400;1084;64168;-85
2021/07/28 07:51:54;;;;;;;9.07;7.07;;;;;;;29.47;46.04;100933.98;128301;1082;64127;-86
2021/07/28 07:54:21;;;;;;;9.90;7.30;;;;;;;29.48;45.79;100930.23;128324;1084;64258;-86
2021/07/28 07:56:48;;;;;;;11.40;7.00;;;;;;;29.47;45.58;100927.67;128329;1084;64204;-86
2021/07/28 07:59:14;;;;;;;11.50;7.40;;;;;;;29.47;45.93;100928.55;128403;1084;64066;-85
2021/07/28 08:01:40;;;;;;;9.40;7.10;;;;;;;29.48;45.57;100927.51;128389;1084;64173;-84
2021/07/28 08:04:06;;;;;;;10.20;7.30;;;;;;;29.48;45.86;100935.67;128337;1083;65327;-84
2021/07/28 08:06:33;;;;;;;11.00;6.77;;;;;;;29.48;45.49;100935.67;128371;1084;64247;-85
2021/07/28 08:08:59;;;;;;;11.60;7.23;;;;;;;29.49;45.79;100934.66;128358;1084;64237;-86
2021/07/28 08:11:26;;;;;;;10.90;7.10;;;;;;;29.49;45.52;100929.22;128375;1083;64282;-86
2021/07/28 08:13:52;;;;;;;9.40;7.33;;;;;;;29.49;46.01;100929.22;128373;1083;62969;-85
2021/07/28 08:16:20;;;;;;;10.17;6.83;;;;;;;29.49;45.39;100929.22;128354;1084;64124;-86
2021/07/28 08:18:49;;;;;;;12.40;7.23;;;;;;;29.50;45.52;100927.38;128390;1084;64339;-86
2021/07/28 08:21:38;;;;;;;13.63;7.60;;;;;;;29.49;45.53;100929.22;128356;1084;64237;-86
2021/07/28 08:24:05;;;;;;;10.53;7.13;;;;;;;29.49;45.63;100915.63;128199;1087;64217;-84
2021/07/28 08:26:31;;;;;;;9.83;7.07;;;;;;;29.51;45.62;100929.92;128001;1087;64101;-84
2021/07/28 08:29:00;;;;;;;9.63;7.03;;;;;;;29.50;45.66;100916.49;127904;1086;64099;-85
2021/07/28 08:31:26;;;;;;;9.57;6.70;;;;;;;29.50;45.50;100911.89;128251;1087;64108;-84
2021/07/28 08:33:54;;;;;;;9.87;6.87;;;;;;;29.50;45.38;100911.89;128287;1085;64125;-84
2021/07/28 08:36:20;;;;;;;9.93;7.37;;;;;;;29.52;45.51;100914.45;127930;1085;64286;-85
2021/07/28 08:38:47;;;;;;;10.00;6.83;;;;;;;29.52;45.55;100918.00;128296;1087;64465;-84
2021/07/28 08:41:13;;;;;;;9.83;6.90;;;;;;;29.52;45.63;100915.28;128276;1087;64174;-84
2021/07/28 08:43:50;;;;;;;9.07;6.60;;;;;;;29.53;45.39;100917.00;127914;1087;64243;-84
2021/07/28 08:46:16;;;;;;;11.33;7.03;;;;;;;29.53;45.56;100908.00;127938;1085;64165;-84
2021/07/28 08:48:42;;;;;;;10.37;6.67;;;;;;;29.53;45.52;100908.84;127931;1087;64274;-84
2021/07/28 08:51:09;;;;;;;8.60;6.70;;;;;;;29.54;45.54;100907.83;127951;1087;64339;-85
2021/07/28 08:53:35;;;;;;;8.17;6.40;;;;;;;29.54;45.25;100906.99;127928;1087;64272;-84
2021/07/28 08:56:01;;;;;;;10.75;6.75;;;;;;;29.55;45.74;100909.55;128236;1087;64352;-86
2021/07/28 08:58:29;;;;;;;9.03;6.30;;;;;;;29.54;45.49;100907.83;127983;1087;64128;-85
2021/07/28 09:00:55;;;;;;;9.20;6.20;;;;;;;29.55;45.54;100900.51;128310;1084;64861;-85
2021/07/28 09:03:22;;;;;;;9.50;6.93;;;;;;;29.55;45.59;100903.23;128309;1082;64121;-85
2021/07/28 09:05:50;;;;;;;9.93;6.33;;;;;;;29.56;45.48;100907.66;128306;1084;64722;-86
2021/07/28 09:08:30;;;;;;;8.88;6.68;;;;;;;29.55;45.50;100904.10;128376;1083;63012;-86
2021/07/28 09:11:04;;;;;;;8.03;6.27;;;;;;;29.54;45.34;100902.39;128430;1084;64144;-86
2021/07/28 09:13:40;;;;;;;9.27;6.70;;;;;;;29.54;45.61;100888.80;128365;1084;64227;-85
2021/07/28 09:16:08;;;;;;;12.83;6.50;;;;;;;29.55;45.57;100884.19;128397;1084;63968;-86
2021/07/28 09:18:42;;;;;;;8.98;6.48;;;;;;;29.54;45.71;100883.35;128308;1084;64724;-87
2021/07/28 09:21:21;;;;;;;9.07;6.03;;;;;;;29.56;45.58;100891.34;128698;1082;64702;-83
2021/07/28 09:23:49;;;;;;;9.98;6.68;;;;;;;29.55;45.45;100879.63;128297;1084;64138;-83
2021/07/28 09:26:29;;;;;;;8.30;6.40;;;;;;;29.56;45.55;100881.33;128384;1083;64089;-84
2021/07/28 09:29:17;;;;;;;7.80;6.20;;;;;;;29.56;45.55;100872.30;128674;1084;62310;-83
2021/07/28 09:31:48;;;;;;;8.07;6.03;;;;;;;29.57;45.54;100880.30;128275;1084;64131;-85
2021/07/28 09:34:23;;;;;;;8.87;6.10;;;;;;;29.57;45.51;100874.85;128297;1081;64097;-84
2021/07/28 09:36:51;;;;;;;7.77;6.00;;;;;;;29.58;45.27;100868.41;128330;1084;64136;-84
2021/07/28 09:39:32;;;;;;;8.20;6.20;;;;;;;29.57;45.60;100874.85;128345;1084;63990;-85
2021/07/28 09:42:00;;;;;;;8.50;6.03;;;;;;;29.56;45.55;100865.02;128379;1084;62172;-86
2021/07/28 09:44:31;;;;;;;9.60;6.68;;;;;;;29.57;45.49;100865.85;128348;1084;64275;-85
2021/07/28 09:47:10;;;;;;;8.67;6.03;;;;;;;29.57;45.30;100857.69;128375;1083;64143;-86
2021/07/28 09:49:37;;;;;;;8.50;6.27;;;;;;;29.57;45.49;100854.98;128363;1082;64129;-86
2021/07/28 09:52:18;;;;;;;8.63;6.23;;;;;;;29.57;45.25;100863.14;128368;1084;64216;-86
2021/07/28 09:54:44;;;;;;;8.40;6.07;;;;;;;29.57;45.49;100863.14;128349;1084;64648;-85
2021/07/28 09:57:14;;;;;;;9.87;6.57;;;;;;;29.56;45.43;100856.86;128346;1084;64108;-86
2021/07/28 09:59:44;;;;;;;10.13;6.07;;;;;;;29.57;45.13;100863.14;128563;1084;64253;-84
2021/07/28 10:02:11;;;;;;;9.93;5.83;;;;;;;29.56;45.09;100861.42;128391;1084;64137;-86
2021/07/28 10:04:38;;;;;;;7.23;5.53;;;;;;;29.55;45.45;100849.70;128313;1084;64215;-87
2021/07/28 10:07:05;;;;;;;7.07;5.87;;;;;;;29.57;45.33;100854.98;128327;1084;64300;-85
2021/07/28 10:09:35;;;;;;;7.10;5.70;;;;;;;29.56;45.25;100848.70;128390;1084;64192;-85
2021/07/28 10:12:02;;;;;;;8.40;6.20;;;;;;;29.58;45.61;100840.37;128628;1082;62992;-85
2021/07/28 10:14:28;;;;;;;8.13;5.73;;;;;;;29.58;45.25;100834.92;128498;1083;64170;-83
2021/07/28 10:16:55;;;;;;;8.20;5.67;;;;;;;29.58;44.91;100840.37;128453;1083;64387;-85
2021/07/28 10:19:21;;;;;;;7.10;5.70;;;;;;;29.58;44.98;100833.05;128731;1083;64094;-84
2021/07/28 10:21:48;;;;;;;7.10;5.80;;;;;;;29.58;44.96;100835.77;128365;1084;64122;-84
2021/07/28 10:24:14;;;;;;;10.33;5.73;;;;;;;29.59;45.05;100832.03;128294;1084;64333;-84
2021/07/28 10:26:45;;;;;;;7.37;5.40;;;;;;;29.58;44.73;100833.05;128337;1082;63609;-85
2021/07/28 10:29:14;;;;;;;7.40;5.50;;;;;;;29.58;44.99;100830.33;128325;1084;64146;-85
2021/07/28 10:31:47;;;;;;;9.80;6.00;;;;;;;29.59;44.89;100825.72;128343;1084;63940;-85
2021/07/28 10:34:33;;;;;;;9.00;6.30;;;;;;;29.58;45.25;100829.48;128331;1084;64099;-84
2021/07/28 10:37:05;;;;;;;8.17;5.70;;;;;;;29.57;45.13;100819.62;128296;1084;64513;-85
2021/07/28 10:39:39;;;;;;;6.70;6.00;;;;;;;29.57;44.78;100816.90;128244;1084;64096;-84
2021/07/28 10:42:09;;;;;;;9.37;5.60;;;;;;;29.56;45.15;100820.63;128336;1084;64125;-86
2021/07/28 10:45:11;;;;;;;8.07;5.53;;;;;;;29.56;44.79;100824.22;128283;1084;64144;-84
2021/07/28 10:47:43;;;;;;;8.37;5.70;;;;;;;29.56;45.19;100816.06;127825;1087;64255;-84
2021/07/28 10:50:42;;;;;;;7.80;5.80;;;;;;;29.56;45.25;100813.34;127785;1087;64099;-85
2021/07/28 10:53:12;;;;;;;8.23;5.87;;;;;;;29.55;45.03;100814.34;127625;1090;64209;-85
2021/07/28 10:55:47;;;;;;;8.70;5.93;;;;;;;29.56;45.08;100815.19;127667;1090;64152;-88
2021/07/28 10:58:23;;;;;;;8.83;5.80;;;;;;;29.56;45.09;100812.47;127692;1089;64135;-85
2021/07/28 11:00:58;;;;;;;8.30;5.73;;;;;;;29.55;45.13;100811.63;127718;1089;64230;-86
2021/07/28 11:03:31;;;;;;;8.15;5.80;;;;;;;29.55;44.85;100810.76;127761;1088;63923;-87
2021/07/28 11:06:18;;;;;;;8.57;6.03;;;;;;;29.55;45.08;100814.34;127883;1090;64150;-86
2021/07/28 11:08:47;;;;;;;8.57;5.70;;;;;;;29.54;45.00;100809.08;127798;1090;64130;-86
2021/07/28 11:11:20;;;;;;;7.00;5.60;;;;;;;29.54;45.29;100806.36;127704;1089;64141;-86
2021/07/28 11:13:49;;;;;;;8.23;5.53;;;;;;;29.53;44.72;100801.93;127708;1089;63955;-86
2021/07/28 11:16:18;;;;;;;7.97;5.70;;;;;;;29.53;45.10;100812.80;127733;1090;64147;-86
2021/07/28 11:18:46;;;;;;;9.67;5.97;;;;;;;29.53;45.15;100801.93;127751;1088;64294;-86
2021/07/28 11:21:41;;;;;;;7.17;5.67;;;;;;;29.52;44.70;100792.90;127712;1089;64224;-86
2021/07/28 11:24:08;;;;;;;8.85;6.05;;;;;;;29.51;45.00;100793.94;127817;1087;64131;-85
2021/07/28 11:26:41;;;;;;;9.67;6.07;;;;;;;29.51;44.67;100791.22;127946;1087;64145;-85
2021/07/28 11:29:10;;;;;;;8.00;5.90;;;;;;;29.52;44.90;100795.63;128112;1084;64269;-86
2021/07/28 11:31:41;;;;;;;9.63;5.48;;;;;;;29.52;44.96;100797.50;128455;1084;64128;-86
2021/07/28 11:34:21;;;;;;;9.33;6.00;;;;;;;29.51;44.90;100801.23;128406;1082;64122;-86
2021/07/28 11:36:56;;;;;;;7.50;5.80;;;;;;;29.52;44.80;100794.78;128374;1084;64168;-86
2021/07/28 11:39:39;;;;;;;8.17;5.73;;;;;;;29.51;44.61;100795.79;128390;1084;64131;-86
2021/07/28 11:42:08;;;;;;;9.53;6.13;;;;;;;29.51;44.95;100793.94;128444;1084;64125;-87
2021/07/28 11:44:53;;;;;;;8.97;6.13;;;;;;;29.50;44.84;100784.08;128428;1082;64128;-86